sensor_id;sensor_type;location;lat;lon;timestamp;pressure;altitude;pressure_sealevel;temperature;humidity
72612;BME280;60655;52.182;4.474;2022-11-20T00:01:49;101527.72;;;1.11;81.47
72612;BME280;60655;52.182;4.474;2022-11-20T00:03:54;101540.09;;;1.19;81.36
72612;BME280;60655;52.182;4.474;2022-11-20T00:06:03;101538.44;;;1.08;81.93
72612;BME280;60655;52.182;4.474;2022-11-20T00:08:04;101526.88;;;1.01;80.96
72612;BME280;60655;52.182;4.474;2022-11-20T00:10:05;101536.94;;;1.06;81.06
72612;BME280;60655;52.182;4.474;2022-11-20T00:12:06;101540.25;;;1.08;81.20
72612;BME280;60655;52.182;4.474;2022-11-20T00:14:08;101548.38;;;1.05;81.13
72612;BME280;60655;52.182;4.474;2022-11-20T00:16:11;101538.56;;;0.97;81.40
72612;BME280;60655;52.182;4.474;2022-11-20T00:18:13;101546.41;;;0.97;81.99
72612;BME280;60655;52.182;4.474;2022-11-20T00:20:14;101528.38;;;0.84;82.15
72612;BME280;60655;52.182;4.474;2022-11-20T00:22:15;101542.81;;;0.88;81.83
72612;BME280;60655;52.182;4.474;2022-11-20T00:24:16;101546.69;;;0.84;82.33
72612;BME280;60655;52.182;4.474;2022-11-20T00:26:18;101541.03;;;0.89;82.82
72612;BME280;60655;52.182;4.474;2022-11-20T00:28:19;101531.69;;;0.86;83.34
72612;BME280;60655;52.182;4.474;2022-11-20T00:30:20;101508.13;;;0.77;82.71
72612;BME280;60655;52.182;4.474;2022-11-20T00:32:21;101523.56;;;0.89;81.93
72612;BME280;60655;52.182;4.474;2022-11-20T00:34:22;101517.78;;;0.76;82.55
72612;BME280;60655;52.182;4.474;2022-11-20T00:36:25;101528.78;;;0.80;83.98
72612;BME280;60655;52.182;4.474;2022-11-20T00:38:26;101519.28;;;0.79;83.88
72612;BME280;60655;52.182;4.474;2022-11-20T00:40:27;101503.03;;;0.65;83.42
72612;BME280;60655;52.182;4.474;2022-11-20T00:42:30;101499.97;;;0.60;83.26
72612;BME280;60655;52.182;4.474;2022-11-20T00:44:33;101527.69;;;0.73;83.39
72612;BME280;60655;52.182;4.474;2022-11-20T00:46:34;101521.31;;;0.56;82.56
72612;BME280;60655;52.182;4.474;2022-11-20T00:48:35;101519.53;;;0.56;82.81
72612;BME280;60655;52.182;4.474;2022-11-20T00:50:36;101515.66;;;0.60;84.00
72612;BME280;60655;52.182;4.474;2022-11-20T00:52:37;101512.22;;;0.60;83.42
72612;BME280;60655;52.182;4.474;2022-11-20T00:54:38;101505.63;;;0.56;83.71
72612;BME280;60655;52.182;4.474;2022-11-20T00:56:39;101507.44;;;0.55;83.87
72612;BME280;60655;52.182;4.474;2022-11-20T00:58:43;101506.16;;;0.59;84.35
72612;BME280;60655;52.182;4.474;2022-11-20T01:00:44;101507.00;;;0.60;84.49
72612;BME280;60655;52.182;4.474;2022-11-20T01:02:45;101499.56;;;0.46;84.58
72612;BME280;60655;52.182;4.474;2022-11-20T01:04:46;101516.22;;;0.64;84.58
72612;BME280;60655;52.182;4.474;2022-11-20T01:06:47;101501.78;;;0.60;84.03
72612;BME280;60655;52.182;4.474;2022-11-20T01:08:49;101515.13;;;0.66;83.80
72612;BME280;60655;52.182;4.474;2022-11-20T01:10:50;101508.38;;;0.64;83.64
72612;BME280;60655;52.182;4.474;2022-11-20T01:12:51;101503.69;;;0.58;83.59
72612;BME280;60655;52.182;4.474;2022-11-20T01:15:12;101513.63;;;0.54;84.32
72612;BME280;60655;52.182;4.474;2022-11-20T01:17:13;101512.34;;;0.58;84.80
72612;BME280;60655;52.182;4.474;2022-11-20T01:19:16;101499.72;;;0.54;84.44
72612;BME280;60655;52.182;4.474;2022-11-20T01:21:23;101502.19;;;0.55;84.23
72612;BME280;60655;52.182;4.474;2022-11-20T01:23:24;101497.50;;;0.49;84.34
72612;BME280;60655;52.182;4.474;2022-11-20T01:25:25;101497.06;;;0.44;83.99
72612;BME280;60655;52.182;4.474;2022-11-20T01:27:26;101490.47;;;0.40;83.88
72612;BME280;60655;52.182;4.474;2022-11-20T01:29:27;101506.56;;;0.45;83.76
72612;BME280;60655;52.182;4.474;2022-11-20T01:31:30;101494.84;;;0.40;83.50
72612;BME280;60655;52.182;4.474;2022-11-20T01:33:32;101489.88;;;0.37;84.05
72612;BME280;60655;52.182;4.474;2022-11-20T01:35:32;101488.94;;;0.38;84.38
72612;BME280;60655;52.182;4.474;2022-11-20T01:37:33;101494.59;;;0.43;84.64
72612;BME280;60655;52.182;4.474;2022-11-20T01:39:34;101493.34;;;0.37;84.90
72612;BME280;60655;52.182;4.474;2022-11-20T01:41:35;101497.16;;;0.33;84.73
72612;BME280;60655;52.182;4.474;2022-11-20T01:43:55;101475.69;;;0.20;85.45
72612;BME280;60655;52.182;4.474;2022-11-20T01:48:00;101490.19;;;0.43;84.79
72612;BME280;60655;52.182;4.474;2022-11-20T01:50:06;101472.81;;;0.32;85.09
72612;BME280;60655;52.182;4.474;2022-11-20T01:52:17;101475.56;;;0.21;85.00
72612;BME280;60655;52.182;4.474;2022-11-20T01:54:33;101496.06;;;0.36;85.41
72612;BME280;60655;52.182;4.474;2022-11-20T01:56:38;101495.69;;;0.40;85.71
72612;BME280;60655;52.182;4.474;2022-11-20T01:58:47;101496.63;;;0.39;85.00
72612;BME280;60655;52.182;4.474;2022-11-20T02:00:49;101496.06;;;0.36;84.68
72612;BME280;60655;52.182;4.474;2022-11-20T02:02:54;101499.09;;;0.31;84.49
72612;BME280;60655;52.182;4.474;2022-11-20T02:05:00;101497.59;;;0.28;85.51
72612;BME280;60655;52.182;4.474;2022-11-20T02:07:04;101479.56;;;0.25;85.43
72612;BME280;60655;52.182;4.474;2022-11-20T02:09:05;101487.81;;;0.21;85.31
72612;BME280;60655;52.182;4.474;2022-11-20T02:11:06;101490.28;;;0.32;85.69
72612;BME280;60655;52.182;4.474;2022-11-20T02:13:08;101470.56;;;0.09;85.18
72612;BME280;60655;52.182;4.474;2022-11-20T02:15:27;101497.13;;;0.14;85.93
72612;BME280;60655;52.182;4.474;2022-11-20T02:17:47;101498.38;;;0.29;85.88
72612;BME280;60655;52.182;4.474;2022-11-20T02:19:48;101498.38;;;0.19;85.52
72612;BME280;60655;52.182;4.474;2022-11-20T02:22:05;101500.38;;;0.06;86.92
72612;BME280;60655;52.182;4.474;2022-11-20T02:24:14;101478.25;;;0.10;86.69
72612;BME280;60655;52.182;4.474;2022-11-20T02:26:16;101480.22;;;0.18;85.69
72612;BME280;60655;52.182;4.474;2022-11-20T02:28:18;101492.47;;;0.17;85.19
72612;BME280;60655;52.182;4.474;2022-11-20T02:30:20;101487.75;;;0.11;85.33
72612;BME280;60655;52.182;4.474;2022-11-20T02:32:23;101480.63;;;0.13;84.77
72612;BME280;60655;52.182;4.474;2022-11-20T02:34:24;101483.31;;;0.02;86.08
72612;BME280;60655;52.182;4.474;2022-11-20T02:36:30;101480.19;;;0.08;87.21
72612;BME280;60655;52.182;4.474;2022-11-20T02:38:32;101485.41;;;0.08;86.50
72612;BME280;60655;52.182;4.474;2022-11-20T02:40:33;101484.84;;;0.05;85.88
72612;BME280;60655;52.182;4.474;2022-11-20T02:42:35;101486.75;;;0.03;87.50
72612;BME280;60655;52.182;4.474;2022-11-20T02:44:36;101477.31;;;0.11;87.34
72612;BME280;60655;52.182;4.474;2022-11-20T02:46:37;101474.56;;;0.13;86.15
72612;BME280;60655;52.182;4.474;2022-11-20T02:48:39;101450.56;;;-0.12;86.28
72612;BME280;60655;52.182;4.474;2022-11-20T02:50:40;101470.00;;;0.05;86.06
72612;BME280;60655;52.182;4.474;2022-11-20T02:52:41;101471.09;;;0.03;85.94
72612;BME280;60655;52.182;4.474;2022-11-20T02:54:42;101459.81;;;0.02;85.01
72612;BME280;60655;52.182;4.474;2022-11-20T02:56:43;101465.97;;;-0.09;84.89
72612;BME280;60655;52.182;4.474;2022-11-20T02:58:44;101456.75;;;-0.13;86.16
72612;BME280;60655;52.182;4.474;2022-11-20T03:00:45;101455.00;;;-0.03;86.32
72612;BME280;60655;52.182;4.474;2022-11-20T03:02:46;101454.19;;;-0.03;86.89
72612;BME280;60655;52.182;4.474;2022-11-20T03:04:47;101455.41;;;0.03;87.07
72612;BME280;60655;52.182;4.474;2022-11-20T03:06:48;101435.06;;;0.06;87.49
72612;BME280;60655;52.182;4.474;2022-11-20T03:08:49;101447.13;;;0.28;87.32
72612;BME280;60655;52.182;4.474;2022-11-20T03:10:50;101449.88;;;0.36;86.96
72612;BME280;60655;52.182;4.474;2022-11-20T03:12:54;101442.59;;;0.40;86.52
72612;BME280;60655;52.182;4.474;2022-11-20T03:14:56;101429.22;;;0.33;85.82
72612;BME280;60655;52.182;4.474;2022-11-20T03:16:57;101425.13;;;0.50;86.30
72612;BME280;60655;52.182;4.474;2022-11-20T03:18:58;101414.81;;;0.48;86.21
72612;BME280;60655;52.182;4.474;2022-11-20T03:20:59;101414.00;;;0.48;85.48
72612;BME280;60655;52.182;4.474;2022-11-20T03:23:00;101414.56;;;0.51;85.68
72612;BME280;60655;52.182;4.474;2022-11-20T03:25:02;101408.34;;;0.43;85.86
72612;BME280;60655;52.182;4.474;2022-11-20T03:27:03;101419.34;;;0.46;85.43
72612;BME280;60655;52.182;4.474;2022-11-20T03:29:04;101419.25;;;0.57;85.54
72612;BME280;60655;52.182;4.474;2022-11-20T03:31:08;101418.94;;;0.51;85.77
72612;BME280;60655;52.182;4.474;2022-11-20T03:33:09;101418.09;;;0.60;86.46
72612;BME280;60655;52.182;4.474;2022-11-20T03:35:10;101417.84;;;0.63;86.02
72612;BME280;60655;52.182;4.474;2022-11-20T03:37:11;101415.34;;;0.61;86.42
72612;BME280;60655;52.182;4.474;2022-11-20T03:39:12;101396.66;;;0.37;85.57
72612;BME280;60655;52.182;4.474;2022-11-20T03:41:22;101398.59;;;0.54;84.88
72612;BME280;60655;52.182;4.474;2022-11-20T03:43:23;101393.22;;;0.46;86.28
72612;BME280;60655;52.182;4.474;2022-11-20T03:45:24;101396.94;;;0.53;86.83
72612;BME280;60655;52.182;4.474;2022-11-20T03:47:25;101407.94;;;0.66;85.70
72612;BME280;60655;52.182;4.474;2022-11-20T03:49:26;101392.53;;;0.63;85.35
72612;BME280;60655;52.182;4.474;2022-11-20T03:51:31;101400.63;;;0.60;85.33
72612;BME280;60655;52.182;4.474;2022-11-20T03:53:32;101392.81;;;0.51;85.34
72612;BME280;60655;52.182;4.474;2022-11-20T03:55:33;101403.81;;;0.45;86.27
72612;BME280;60655;52.182;4.474;2022-11-20T03:57:34;101390.75;;;0.45;85.84
72612;BME280;60655;52.182;4.474;2022-11-20T03:59:35;101399.84;;;0.50;85.38
72612;BME280;60655;52.182;4.474;2022-11-20T04:01:36;101400.94;;;0.57;84.90
72612;BME280;60655;52.182;4.474;2022-11-20T04:03:41;101384.41;;;0.47;85.40
72612;BME280;60655;52.182;4.474;2022-11-20T04:05:42;101393.91;;;0.58;85.75
72612;BME280;60655;52.182;4.474;2022-11-20T04:07:43;101385.25;;;0.57;86.34
72612;BME280;60655;52.182;4.474;2022-11-20T04:09:44;101366.41;;;0.54;83.94
72612;BME280;60655;52.182;4.474;2022-11-20T04:11:45;101375.91;;;0.55;85.22
72612;BME280;60655;52.182;4.474;2022-11-20T04:13:48;101360.63;;;0.50;86.21
72612;BME280;60655;52.182;4.474;2022-11-20T04:15:50;101346.59;;;0.42;85.87
72612;BME280;60655;52.182;4.474;2022-11-20T04:17:51;101361.41;;;0.60;85.73
72612;BME280;60655;52.182;4.474;2022-11-20T04:19:52;101350.28;;;0.58;85.84
72612;BME280;60655;52.182;4.474;2022-11-20T04:21:53;101340.00;;;0.57;85.79
72612;BME280;60655;52.182;4.474;2022-11-20T04:23:54;101357.84;;;0.61;85.11
72612;BME280;60655;52.182;4.474;2022-11-20T04:26:09;101354.69;;;0.67;85.64
72612;BME280;60655;52.182;4.474;2022-11-20T04:28:11;101357.84;;;0.61;85.57
72612;BME280;60655;52.182;4.474;2022-11-20T04:30:12;101349.88;;;0.63;85.74
72612;BME280;60655;52.182;4.474;2022-11-20T04:32:13;101335.00;;;0.06;84.94
72612;BME280;60655;52.182;4.474;2022-11-20T04:34:14;101357.25;;;-0.10;83.86
72612;BME280;60655;52.182;4.474;2022-11-20T04:36:17;101328.19;;;-0.76;83.01
72612;BME280;60655;52.182;4.474;2022-11-20T04:38:19;101361.63;;;-0.20;85.60
72612;BME280;60655;52.182;4.474;2022-11-20T04:40:20;101344.91;;;-0.08;86.41
72612;BME280;60655;52.182;4.474;2022-11-20T04:42:21;101358.91;;;0.01;87.10
72612;BME280;60655;52.182;4.474;2022-11-20T04:44:31;101356.28;;;0.01;86.94
72612;BME280;60655;52.182;4.474;2022-11-20T04:46:37;101357.81;;;-0.06;86.03
72612;BME280;60655;52.182;4.474;2022-11-20T04:48:38;101332.94;;;-0.10;86.56
72612;BME280;60655;52.182;4.474;2022-11-20T04:50:40;101354.78;;;-0.11;85.63
72612;BME280;60655;52.182;4.474;2022-11-20T04:52:41;101353.91;;;-0.21;86.06
72612;BME280;60655;52.182;4.474;2022-11-20T04:54:42;101366.03;;;-0.11;87.71
72612;BME280;60655;52.182;4.474;2022-11-20T04:56:43;101349.81;;;-0.14;87.20
72612;BME280;60655;52.182;4.474;2022-11-20T04:58:44;101347.34;;;-0.16;87.41
72612;BME280;60655;52.182;4.474;2022-11-20T05:00:45;101363.56;;;-0.12;86.06
72612;BME280;60655;52.182;4.474;2022-11-20T05:02:46;101348.13;;;-0.25;86.45
72612;BME280;60655;52.182;4.474;2022-11-20T05:04:47;101354.75;;;-0.21;87.46
72612;BME280;60655;52.182;4.474;2022-11-20T05:06:49;101340.03;;;-0.31;86.54
72612;BME280;60655;52.182;4.474;2022-11-20T05:08:50;101354.44;;;-0.27;85.76
72612;BME280;60655;52.182;4.474;2022-11-20T05:10:51;101330.50;;;-0.42;86.90
72612;BME280;60655;52.182;4.474;2022-11-20T05:12:52;101365.75;;;-0.17;88.33
72612;BME280;60655;52.182;4.474;2022-11-20T05:14:53;101372.06;;;-0.20;87.89
72612;BME280;60655;52.182;4.474;2022-11-20T05:16:54;101352.13;;;-0.30;88.20
72612;BME280;60655;52.182;4.474;2022-11-20T05:18:55;101364.69;;;-0.05;88.30
72612;BME280;60655;52.182;4.474;2022-11-20T05:20:57;101374.84;;;-0.12;87.94
72612;BME280;60655;52.182;4.474;2022-11-20T05:22:58;101381.88;;;-0.03;88.26
72612;BME280;60655;52.182;4.474;2022-11-20T05:24:59;101381.72;;;-0.11;86.90
72612;BME280;60655;52.182;4.474;2022-11-20T05:27:00;101367.94;;;-0.22;87.75
72612;BME280;60655;52.182;4.474;2022-11-20T05:29:01;101370.00;;;-0.16;88.29
72612;BME280;60655;52.182;4.474;2022-11-20T05:31:07;101364.66;;;-0.15;87.70
72612;BME280;60655;52.182;4.474;2022-11-20T05:33:08;101362.47;;;-0.10;86.71
72612;BME280;60655;52.182;4.474;2022-11-20T05:35:09;101354.06;;;-0.23;86.02
72612;BME280;60655;52.182;4.474;2022-11-20T05:37:10;101341.94;;;-0.33;87.37
72612;BME280;60655;52.182;4.474;2022-11-20T05:39:11;101348.56;;;-0.20;86.79
72612;BME280;60655;52.182;4.474;2022-11-20T05:41:14;101338.78;;;-0.27;86.90
72612;BME280;60655;52.182;4.474;2022-11-20T05:43:15;101340.72;;;-0.20;86.94
72612;BME280;60655;52.182;4.474;2022-11-20T05:45:16;101338.13;;;-0.20;87.11
72612;BME280;60655;52.182;4.474;2022-11-20T05:47:17;101319.03;;;-0.30;86.60
72612;BME280;60655;52.182;4.474;2022-11-20T05:49:18;101331.91;;;-0.28;87.00
72612;BME280;60655;52.182;4.474;2022-11-20T05:51:19;101342.78;;;-0.23;87.23
72612;BME280;60655;52.182;4.474;2022-11-20T05:53:20;101337.16;;;-0.19;87.07
72612;BME280;60655;52.182;4.474;2022-11-20T05:55:21;101320.06;;;-0.42;86.85
72612;BME280;60655;52.182;4.474;2022-11-20T05:57:22;101335.50;;;-0.20;86.81
72612;BME280;60655;52.182;4.474;2022-11-20T05:59:23;101324.50;;;-0.33;87.04
72612;BME280;60655;52.182;4.474;2022-11-20T06:01:25;101303.31;;;-0.40;87.34
72612;BME280;60655;52.182;4.474;2022-11-20T06:03:26;101309.81;;;-0.24;87.66
72612;BME280;60655;52.182;4.474;2022-11-20T06:05:27;101319.16;;;-0.22;87.11
72612;BME280;60655;52.182;4.474;2022-11-20T06:07:28;101324.63;;;-0.25;87.85
72612;BME280;60655;52.182;4.474;2022-11-20T06:09:29;101325.75;;;-0.18;87.23
72612;BME280;60655;52.182;4.474;2022-11-20T06:11:30;101315.91;;;-0.05;87.66
72612;BME280;60655;52.182;4.474;2022-11-20T06:13:31;101312.34;;;-0.04;87.22
72612;BME280;60655;52.182;4.474;2022-11-20T06:15:32;101314.94;;;-0.04;87.75
72612;BME280;60655;52.182;4.474;2022-11-20T06:17:33;101264.72;;;-0.26;87.46
72612;BME280;60655;52.182;4.474;2022-11-20T06:19:34;101305.88;;;0.10;88.13
72612;BME280;60655;52.182;4.474;2022-11-20T06:21:35;101292.25;;;0.07;87.90
72612;BME280;60655;52.182;4.474;2022-11-20T06:23:36;101301.34;;;0.22;87.75
72612;BME280;60655;52.182;4.474;2022-11-20T06:25:41;101289.09;;;0.22;87.74
72612;BME280;60655;52.182;4.474;2022-11-20T06:27:42;101298.16;;;0.47;88.08
72612;BME280;60655;52.182;4.474;2022-11-20T06:29:43;101303.53;;;0.55;86.63
72612;BME280;60655;52.182;4.474;2022-11-20T06:31:44;101303.22;;;0.58;86.25
72612;BME280;60655;52.182;4.474;2022-11-20T06:33:45;101301.28;;;0.60;86.89
72612;BME280;60655;52.182;4.474;2022-11-20T06:35:46;101296.88;;;0.71;86.69
72612;BME280;60655;52.182;4.474;2022-11-20T06:37:47;101298.69;;;0.70;86.40
72612;BME280;60655;52.182;4.474;2022-11-20T06:39:48;101296.91;;;0.61;85.58
72612;BME280;60655;52.182;4.474;2022-11-20T06:41:49;101283.00;;;0.70;86.91
72612;BME280;60655;52.182;4.474;2022-11-20T06:43:50;101288.50;;;0.77;85.95
72612;BME280;60655;52.182;4.474;2022-11-20T06:45:55;101284.63;;;0.71;85.89
72612;BME280;60655;52.182;4.474;2022-11-20T06:47:57;101280.25;;;0.72;85.87
72612;BME280;60655;52.182;4.474;2022-11-20T06:49:59;101276.25;;;0.77;85.82
72612;BME280;60655;52.182;4.474;2022-11-20T06:52:00;101270.03;;;0.78;86.50
72612;BME280;60655;52.182;4.474;2022-11-20T06:54:00;101274.56;;;0.86;87.22
72612;BME280;60655;52.182;4.474;2022-11-20T06:56:02;101287.75;;;0.94;86.52
72612;BME280;60655;52.182;4.474;2022-11-20T06:58:03;101272.91;;;0.85;86.51
72612;BME280;60655;52.182;4.474;2022-11-20T07:00:05;101276.38;;;0.85;86.94
72612;BME280;60655;52.182;4.474;2022-11-20T07:02:10;101277.69;;;0.89;87.58
72612;BME280;60655;52.182;4.474;2022-11-20T07:04:12;101289.78;;;1.10;86.96
72612;BME280;60655;52.182;4.474;2022-11-20T07:06:13;101285.66;;;1.07;86.84
72612;BME280;60655;52.182;4.474;2022-11-20T07:08:14;101291.44;;;1.01;86.64
72612;BME280;60655;52.182;4.474;2022-11-20T07:10:15;101286.47;;;1.08;86.71
72612;BME280;60655;52.182;4.474;2022-11-20T07:12:16;101275.72;;;1.11;86.75
72612;BME280;60655;52.182;4.474;2022-11-20T07:14:17;101287.22;;;1.27;86.73
72612;BME280;60655;52.182;4.474;2022-11-20T07:16:18;101292.84;;;1.32;86.46
72612;BME280;60655;52.182;4.474;2022-11-20T07:18:19;101295.16;;;1.35;86.09
72612;BME280;60655;52.182;4.474;2022-11-20T07:20:20;101283.22;;;1.23;86.78
72612;BME280;60655;52.182;4.474;2022-11-20T07:22:21;101284.84;;;1.34;87.05
72612;BME280;60655;52.182;4.474;2022-11-20T07:24:22;101284.97;;;1.32;87.11
72612;BME280;60655;52.182;4.474;2022-11-20T07:26:23;101290.47;;;1.39;85.12
72612;BME280;60655;52.182;4.474;2022-11-20T07:28:24;101288.00;;;1.38;86.09
72612;BME280;60655;52.182;4.474;2022-11-20T07:30:26;101286.88;;;1.40;85.33
72612;BME280;60655;52.182;4.474;2022-11-20T07:32:27;101281.81;;;1.29;87.31
72612;BME280;60655;52.182;4.474;2022-11-20T07:34:28;101277.25;;;1.41;87.17
72612;BME280;60655;52.182;4.474;2022-11-20T07:36:29;101267.31;;;1.44;87.03
72612;BME280;60655;52.182;4.474;2022-11-20T07:38:30;101260.09;;;1.46;87.41
72612;BME280;60655;52.182;4.474;2022-11-20T07:40:31;101259.81;;;1.49;87.29
72612;BME280;60655;52.182;4.474;2022-11-20T07:42:32;101271.50;;;1.55;86.64
72612;BME280;60655;52.182;4.474;2022-11-20T07:44:33;101257.13;;;1.14;85.53
72612;BME280;60655;52.182;4.474;2022-11-20T07:46:34;101275.13;;;0.80;85.84
72612;BME280;60655;52.182;4.474;2022-11-20T07:48:35;101275.34;;;0.40;86.31
72612;BME280;60655;52.182;4.474;2022-11-20T07:50:36;101278.16;;;0.75;87.67
72612;BME280;60655;52.182;4.474;2022-11-20T07:52:37;101244.94;;;0.95;87.21
72612;BME280;60655;52.182;4.474;2022-11-20T07:54:38;101260.75;;;1.03;88.18
72612;BME280;60655;52.182;4.474;2022-11-20T07:56:39;101277.56;;;1.28;87.51
72612;BME280;60655;52.182;4.474;2022-11-20T07:58:39;101260.56;;;1.14;87.32
72612;BME280;60655;52.182;4.474;2022-11-20T08:00:41;101255.06;;;1.08;87.00
72612;BME280;60655;52.182;4.474;2022-11-20T08:02:42;101275.88;;;1.09;87.54
72612;BME280;60655;52.182;4.474;2022-11-20T08:04:43;101277.59;;;1.18;87.82
72612;BME280;60655;52.182;4.474;2022-11-20T08:06:44;101280.31;;;1.26;88.07
72612;BME280;60655;52.182;4.474;2022-11-20T08:08:45;101271.22;;;1.30;87.91
72612;BME280;60655;52.182;4.474;2022-11-20T08:10:46;101275.88;;;1.37;87.33
72612;BME280;60655;52.182;4.474;2022-11-20T08:12:49;101264.47;;;1.28;87.33
72612;BME280;60655;52.182;4.474;2022-11-20T08:15:09;101256.34;;;1.31;87.12
72612;BME280;60655;52.182;4.474;2022-11-20T08:17:10;101271.53;;;1.45;87.77
72612;BME280;60655;52.182;4.474;2022-11-20T08:19:12;101268.72;;;1.39;87.71
72612;BME280;60655;52.182;4.474;2022-11-20T08:21:13;101263.25;;;1.50;87.56
72612;BME280;60655;52.182;4.474;2022-11-20T08:23:14;101254.03;;;1.46;87.80
72612;BME280;60655;52.182;4.474;2022-11-20T08:25:15;101270.72;;;1.45;87.24
72612;BME280;60655;52.182;4.474;2022-11-20T08:27:16;101257.28;;;1.40;86.99
72612;BME280;60655;52.182;4.474;2022-11-20T08:29:17;101268.72;;;1.39;87.54
72612;BME280;60655;52.182;4.474;2022-11-20T08:31:18;101279.09;;;1.48;88.04
72612;BME280;60655;52.182;4.474;2022-11-20T08:33:19;101266.03;;;1.48;87.85
72612;BME280;60655;52.182;4.474;2022-11-20T08:35:21;101261.50;;;1.68;87.47
72612;BME280;60655;52.182;4.474;2022-11-20T08:37:22;101261.81;;;1.65;86.78
72612;BME280;60655;52.182;4.474;2022-11-20T08:39:23;101257.25;;;1.67;86.67
72612;BME280;60655;52.182;4.474;2022-11-20T08:41:23;101247.88;;;1.64;86.98
72612;BME280;60655;52.182;4.474;2022-11-20T08:43:24;101254.91;;;1.64;87.01
72612;BME280;60655;52.182;4.474;2022-11-20T08:45:25;101260.81;;;1.66;87.23
72612;BME280;60655;52.182;4.474;2022-11-20T08:47:26;101264.44;;;1.83;87.13
72612;BME280;60655;52.182;4.474;2022-11-20T08:49:27;101260.69;;;1.85;86.69
72612;BME280;60655;52.182;4.474;2022-11-20T08:51:28;101251.22;;;1.57;85.15
72612;BME280;60655;52.182;4.474;2022-11-20T08:53:29;101260.34;;;1.53;83.61
72612;BME280;60655;52.182;4.474;2022-11-20T08:55:30;101248.72;;;1.65;84.76
72612;BME280;60655;52.182;4.474;2022-11-20T08:57:34;101248.25;;;1.87;85.94
72612;BME280;60655;52.182;4.474;2022-11-20T08:59:36;101252.28;;;1.64;85.01
72612;BME280;60655;52.182;4.474;2022-11-20T09:01:37;101256.81;;;1.72;84.14
72612;BME280;60655;52.182;4.474;2022-11-20T09:03:37;101250.84;;;1.52;83.32
72612;BME280;60655;52.182;4.474;2022-11-20T09:05:39;101249.63;;;1.46;84.06
72612;BME280;60655;52.182;4.474;2022-11-20T09:07:40;101240.47;;;1.60;85.48
72612;BME280;60655;52.182;4.474;2022-11-20T09:09:41;101233.00;;;1.65;85.23
72612;BME280;60655;52.182;4.474;2022-11-20T09:11:42;101236.44;;;1.65;84.60
72612;BME280;60655;52.182;4.474;2022-11-20T09:13:43;101225.06;;;1.57;84.91
72612;BME280;60655;52.182;4.474;2022-11-20T09:15:44;101230.47;;;1.73;85.80
72612;BME280;60655;52.182;4.474;2022-11-20T09:17:59;101223.19;;;1.85;85.88
72612;BME280;60655;52.182;4.474;2022-11-20T09:20:00;101219.69;;;1.94;85.17
72612;BME280;60655;52.182;4.474;2022-11-20T09:22:02;101221.44;;;2.11;85.33
72612;BME280;60655;52.182;4.474;2022-11-20T09:24:02;101222.13;;;2.13;85.18
72612;BME280;60655;52.182;4.474;2022-11-20T09:26:06;101224.31;;;2.18;85.05
72612;BME280;60655;52.182;4.474;2022-11-20T09:28:08;101217.50;;;2.07;84.77
72612;BME280;60655;52.182;4.474;2022-11-20T09:30:10;101213.00;;;2.17;85.11
72612;BME280;60655;52.182;4.474;2022-11-20T09:32:11;101214.19;;;2.23;84.85
72612;BME280;60655;52.182;4.474;2022-11-20T09:34:12;101211.78;;;2.12;84.55
72612;BME280;60655;52.182;4.474;2022-11-20T09:36:13;101203.03;;;2.21;84.17
72612;BME280;60655;52.182;4.474;2022-11-20T09:38:14;101192.41;;;2.22;83.72
72612;BME280;60655;52.182;4.474;2022-11-20T09:40:38;101201.53;;;2.44;84.51
72612;BME280;60655;52.182;4.474;2022-11-20T09:45:10;101192.03;;;2.43;84.14
72612;BME280;60655;52.182;4.474;2022-11-20T09:47:41;101184.91;;;2.61;84.42
72612;BME280;60655;52.182;4.474;2022-11-20T09:54:38;101173.00;;;2.67;84.71
72612;BME280;60655;52.182;4.474;2022-11-20T09:56:42;101155.03;;;2.46;83.79
72612;BME280;60655;52.182;4.474;2022-11-20T09:58:48;101154.28;;;2.36;83.83
72612;BME280;60655;52.182;4.474;2022-11-20T10:00:52;101149.47;;;2.49;82.77
72612;BME280;60655;52.182;4.474;2022-11-20T10:03:13;101150.28;;;2.50;82.53
72612;BME280;60655;52.182;4.474;2022-11-20T10:05:28;101133.44;;;2.52;83.73
72612;BME280;60655;52.182;4.474;2022-11-20T10:09:53;101133.97;;;2.30;82.74
72612;BME280;60655;52.182;4.474;2022-11-20T10:14:06;101138.22;;;2.57;85.33
72612;BME280;60655;52.182;4.474;2022-11-20T10:25:14;101109.63;;;2.80;85.35
72612;BME280;60655;52.182;4.474;2022-11-20T10:29:18;101098.81;;;2.83;85.87
72612;BME280;60655;52.182;4.474;2022-11-20T10:33:36;101089.47;;;2.96;85.35
72612;BME280;60655;52.182;4.474;2022-11-20T10:35:44;101084.22;;;2.88;84.80
72612;BME280;60655;52.182;4.474;2022-11-20T10:37:51;101090.16;;;2.98;84.84
72612;BME280;60655;52.182;4.474;2022-11-20T10:40:25;101077.72;;;3.09;85.73
72612;BME280;60655;52.182;4.474;2022-11-20T10:44:29;101063.91;;;2.98;84.89
72612;BME280;60655;52.182;4.474;2022-11-20T10:46:49;101055.81;;;2.76;84.55
72612;BME280;60655;52.182;4.474;2022-11-20T10:48:50;101046.50;;;2.89;84.88
72612;BME280;60655;52.182;4.474;2022-11-20T10:53:45;101044.69;;;2.82;85.42
72612;BME280;60655;52.182;4.474;2022-11-20T10:55:58;101043.88;;;2.97;85.67
72612;BME280;60655;52.182;4.474;2022-11-20T10:58:07;101034.56;;;3.03;85.68
72612;BME280;60655;52.182;4.474;2022-11-20T11:00:11;101033.84;;;2.77;85.96
72612;BME280;60655;52.182;4.474;2022-11-20T11:02:24;101045.34;;;2.92;86.11
72612;BME280;60655;52.182;4.474;2022-11-20T11:04:44;101040.41;;;2.89;85.70
72612;BME280;60655;52.182;4.474;2022-11-20T11:06:47;101037.47;;;2.84;86.63
72612;BME280;60655;52.182;4.474;2022-11-20T11:08:51;101022.56;;;2.84;86.06
72612;BME280;60655;52.182;4.474;2022-11-20T11:10:59;101018.63;;;2.88;87.06
72612;BME280;60655;52.182;4.474;2022-11-20T11:13:02;101017.81;;;3.04;87.07
72612;BME280;60655;52.182;4.474;2022-11-20T11:15:03;101014.22;;;3.05;87.02
72612;BME280;60655;52.182;4.474;2022-11-20T11:17:04;101015.88;;;3.06;87.42
72612;BME280;60655;52.182;4.474;2022-11-20T11:19:06;101004.38;;;3.07;87.50
72612;BME280;60655;52.182;4.474;2022-11-20T11:21:09;100994.38;;;3.11;87.25